createdAt,value
2023-06-30T00:01:50.940Z,15.31
2023-06-30T00:03:54.770Z,15.11
2023-06-30T00:05:58.188Z,14.99
2023-06-30T00:08:01.582Z,15.39
2023-06-30T00:10:06.427Z,15.06
2023-06-30T00:12:11.464Z,15.10
2023-06-30T00:14:14.207Z,14.91
2023-06-30T00:16:17.413Z,15.16
2023-06-30T00:18:20.070Z,15.09
2023-06-30T00:20:25.518Z,14.80
2023-06-30T00:22:29.008Z,14.88
2023-06-30T00:24:32.315Z,14.81
2023-06-30T00:26:35.097Z,14.91
2023-06-30T00:28:37.994Z,14.86
2023-06-30T00:30:41.750Z,14.84
2023-06-30T00:32:44.623Z,14.77
2023-06-30T00:34:47.831Z,14.92
2023-06-30T00:36:52.254Z,14.87
2023-06-30T00:38:56.360Z,14.81
2023-06-30T00:40:59.692Z,14.97
2023-06-30T00:43:03.388Z,14.71
2023-06-30T00:45:07.441Z,14.88
2023-06-30T00:47:11.302Z,14.76
2023-06-30T00:49:14.944Z,14.72
2023-06-30T00:51:18.489Z,14.42
2023-06-30T00:53:21.755Z,14.46
2023-06-30T00:55:26.606Z,14.55
2023-06-30T00:57:29.393Z,14.76
2023-06-30T00:59:33.560Z,14.43
2023-06-30T01:02:12.861Z,15.00
2023-06-30T01:04:25.459Z,14.45
2023-06-30T01:06:39.529Z,14.58
2023-06-30T01:09:07.380Z,14.83
2023-06-30T01:11:12.064Z,14.72
2023-06-30T01:13:16.297Z,14.28
2023-06-30T01:15:20.643Z,14.40
2023-06-30T01:17:26.551Z,14.39
2023-06-30T01:19:37.480Z,13.91
2023-06-30T01:21:41.312Z,14.39
2023-06-30T01:23:57.259Z,13.97
2023-06-30T01:26:00.891Z,14.69
2023-06-30T01:28:04.872Z,14.30
2023-06-30T01:30:09.259Z,14.40
2023-06-30T01:32:18.620Z,14.54
2023-06-30T01:34:21.398Z,14.55
2023-06-30T01:36:24.162Z,14.43
2023-06-30T01:38:26.872Z,14.35
2023-06-30T01:40:31.923Z,14.19
2023-06-30T01:42:37.760Z,14.21
2023-06-30T01:44:42.824Z,14.25
2023-06-30T01:46:46.092Z,14.23
2023-06-30T01:48:50.225Z,14.33
2023-06-30T01:50:55.545Z,14.09
2023-06-30T01:53:00.061Z,14.10
2023-06-30T01:55:04.772Z,14.09
2023-06-30T01:57:08.170Z,14.23
2023-06-30T01:59:10.978Z,14.34
2023-06-30T02:01:15.164Z,14.36
2023-06-30T02:03:18.441Z,14.56
2023-06-30T02:05:25.218Z,14.00
2023-06-30T02:07:28.645Z,14.13
2023-06-30T02:09:43.172Z,14.06
2023-06-30T02:11:51.717Z,14.37
2023-06-30T02:13:54.590Z,14.05
2023-06-30T02:15:57.492Z,14.27
2023-06-30T02:18:01.165Z,14.32
2023-06-30T02:20:07.328Z,14.17
2023-06-30T02:22:10.002Z,14.35
2023-06-30T02:24:13.501Z,14.27
2023-06-30T02:26:17.683Z,14.40
2023-06-30T02:28:20.545Z,13.97
2023-06-30T02:30:23.669Z,14.35
2023-06-30T02:32:27.241Z,13.86
2023-06-30T02:34:30.044Z,14.20
2023-06-30T02:36:33.262Z,14.06
2023-06-30T02:38:36.062Z,14.04
2023-06-30T02:40:39.020Z,13.94
2023-06-30T02:42:41.840Z,14.21
2023-06-30T02:44:45.972Z,14.09
2023-06-30T02:46:48.995Z,14.04
2023-06-30T02:48:51.738Z,14.17
2023-06-30T02:50:55.116Z,14.25
2023-06-30T02:53:00.655Z,14.14
2023-06-30T02:55:04.203Z,13.90
2023-06-30T02:57:07.245Z,14.01
2023-06-30T02:59:10.940Z,14.24
2023-06-30T03:01:14.302Z,14.12
2023-06-30T03:03:19.388Z,13.77
2023-06-30T03:05:23.164Z,14.26
2023-06-30T03:07:26.656Z,14.15
2023-06-30T03:09:29.851Z,13.93
2023-06-30T03:11:33.135Z,14.25
2023-06-30T03:13:36.116Z,14.05
2023-06-30T03:15:39.436Z,13.84
2023-06-30T03:17:42.618Z,14.38
2023-06-30T03:19:45.849Z,14.28
2023-06-30T03:21:49.050Z,14.21
2023-06-30T03:23:51.927Z,14.43
2023-06-30T03:25:54.970Z,14.35
2023-06-30T03:27:59.131Z,13.99
2023-06-30T03:30:02.193Z,14.48
2023-06-30T03:32:06.331Z,14.43
2023-06-30T03:34:09.931Z,14.65
2023-06-30T03:36:12.690Z,14.22
2023-06-30T03:38:15.342Z,14.26
2023-06-30T03:40:18.159Z,13.97
2023-06-30T03:42:21.156Z,14.23
2023-06-30T03:44:24.037Z,14.59
2023-06-30T03:46:27.343Z,14.37
2023-06-30T03:48:29.897Z,14.41
2023-06-30T03:50:33.180Z,14.38
2023-06-30T03:52:36.497Z,14.25
2023-06-30T03:54:39.033Z,13.96
2023-06-30T03:56:41.912Z,14.55
2023-06-30T03:58:47.800Z,14.45
2023-06-30T04:00:51.626Z,14.32
2023-06-30T04:02:54.592Z,14.32
2023-06-30T04:04:57.529Z,14.59
2023-06-30T04:07:00.477Z,14.58
2023-06-30T04:09:04.462Z,14.63
2023-06-30T04:11:07.318Z,14.58
2023-06-30T04:13:10.638Z,14.80
2023-06-30T04:15:13.500Z,15.15
2023-06-30T04:17:16.549Z,15.16
2023-06-30T04:19:19.202Z,15.25
2023-06-30T04:21:23.868Z,15.13
2023-06-30T04:23:26.790Z,15.14
2023-06-30T04:25:29.396Z,15.62
2023-06-30T04:27:32.107Z,15.58
2023-06-30T04:29:34.748Z,15.85
2023-06-30T04:31:37.324Z,15.85
2023-06-30T04:33:41.118Z,15.75
2023-06-30T04:35:46.003Z,15.78
2023-06-30T04:37:49.062Z,16.20
2023-06-30T04:39:52.079Z,16.20
2023-06-30T04:41:54.716Z,16.32
2023-06-30T04:43:57.853Z,16.59
2023-06-30T04:46:01.600Z,16.53
2023-06-30T04:48:05.451Z,16.24
2023-06-30T04:50:08.821Z,16.43
2023-06-30T04:52:11.680Z,16.14
2023-06-30T04:54:14.779Z,16.59
2023-06-30T04:56:18.010Z,16.56
2023-06-30T04:58:23.607Z,16.58
2023-06-30T05:00:29.304Z,16.93
2023-06-30T05:02:32.462Z,16.71
2023-06-30T05:04:35.393Z,16.94
2023-06-30T05:06:38.502Z,17.14
2023-06-30T05:08:41.498Z,16.80
2023-06-30T05:10:44.845Z,16.58
2023-06-30T05:12:50.262Z,16.83
2023-06-30T05:14:54.319Z,16.68
2023-06-30T05:16:57.400Z,16.90
2023-06-30T05:19:00.349Z,16.48
2023-06-30T05:21:03.763Z,16.92
2023-06-30T05:23:07.225Z,17.01
2023-06-30T05:25:10.734Z,16.79
2023-06-30T05:27:13.913Z,16.94
2023-06-30T05:29:16.763Z,16.75
2023-06-30T05:31:20.315Z,16.76
2023-06-30T05:33:23.267Z,17.02
2023-06-30T05:35:26.166Z,17.20
2023-06-30T05:37:29.069Z,17.10
2023-06-30T05:39:31.818Z,17.21
2023-06-30T05:41:34.661Z,17.34
2023-06-30T05:43:37.280Z,17.49
2023-06-30T05:45:40.741Z,17.61
2023-06-30T05:47:44.088Z,17.50
2023-06-30T05:49:46.961Z,17.56
2023-06-30T05:51:50.286Z,17.69
2023-06-30T05:53:53.590Z,18.08
2023-06-30T05:55:57.630Z,17.98
2023-06-30T05:58:00.386Z,17.89
2023-06-30T06:00:04.213Z,17.58
2023-06-30T06:02:15.302Z,18.02
2023-06-30T06:04:20.188Z,18.20
2023-06-30T06:06:24.652Z,18.02
2023-06-30T06:08:27.265Z,18.03
2023-06-30T06:10:30.615Z,18.10
2023-06-30T06:12:33.133Z,18.40
2023-06-30T06:14:36.165Z,18.63
2023-06-30T06:16:38.743Z,18.78
2023-06-30T06:18:41.561Z,18.67
2023-06-30T06:20:44.765Z,18.85
2023-06-30T06:22:47.654Z,18.73
2023-06-30T06:24:51.155Z,18.51
2023-06-30T06:26:53.845Z,18.99
2023-06-30T06:28:56.898Z,19.29
2023-06-30T06:30:59.483Z,19.03
2023-06-30T06:33:03.381Z,19.02
2023-06-30T06:35:06.718Z,19.40
2023-06-30T06:37:09.960Z,19.34
2023-06-30T06:39:12.941Z,19.41
2023-06-30T06:41:15.600Z,19.36
2023-06-30T06:43:18.573Z,19.28
2023-06-30T06:45:21.624Z,19.60
2023-06-30T06:48:01.704Z,19.85
2023-06-30T06:50:06.012Z,19.74
2023-06-30T06:52:08.997Z,19.73
2023-06-30T06:54:11.889Z,19.42
2023-06-30T06:56:14.804Z,19.76
2023-06-30T06:58:18.680Z,19.94
2023-06-30T07:00:21.957Z,19.98
2023-06-30T07:02:24.808Z,20.25
2023-06-30T07:04:27.632Z,20.26
2023-06-30T07:06:30.298Z,20.27
2023-06-30T07:08:36.751Z,20.38
2023-06-30T07:10:39.627Z,20.44
2023-06-30T07:12:42.541Z,20.30
2023-06-30T07:14:47.884Z,20.80
2023-06-30T07:16:52.543Z,20.51
2023-06-30T07:18:55.842Z,20.94
2023-06-30T07:20:59.206Z,20.57
2023-06-30T07:23:01.899Z,20.97
2023-06-30T07:25:09.213Z,21.07
2023-06-30T07:27:12.289Z,21.01
2023-06-30T07:29:15.246Z,21.35
2023-06-30T07:31:18.639Z,21.41
2023-06-30T07:33:21.657Z,21.53
2023-06-30T07:35:25.448Z,21.56
2023-06-30T07:37:28.530Z,21.56
2023-06-30T07:39:32.005Z,22.01
2023-06-30T07:41:36.849Z,21.88
2023-06-30T07:43:39.742Z,21.90
2023-06-30T07:45:42.874Z,21.88
2023-06-30T07:47:50.712Z,22.30
2023-06-30T07:49:53.628Z,22.22
2023-06-30T07:51:57.101Z,22.52
2023-06-30T07:53:59.864Z,22.63
2023-06-30T07:56:02.510Z,22.98
2023-06-30T07:58:05.135Z,23.03
2023-06-30T08:00:09.801Z,23.30
2023-06-30T08:02:19.719Z,23.33
2023-06-30T08:04:23.550Z,23.34
2023-06-30T08:06:26.791Z,23.51
2023-06-30T08:08:33.453Z,23.75
2023-06-30T08:10:39.002Z,24.04
2023-06-30T08:12:42.599Z,24.44
2023-06-30T08:14:45.435Z,24.46
2023-06-30T08:16:48.748Z,24.69
2023-06-30T08:18:52.815Z,24.73
2023-06-30T08:20:57.406Z,25.00
2023-06-30T08:23:00.597Z,25.30
2023-06-30T08:25:04.142Z,25.67
2023-06-30T08:27:07.902Z,25.29
2023-06-30T08:29:10.609Z,25.71
2023-06-30T08:31:14.584Z,25.82
2023-06-30T08:33:26.581Z,25.89
2023-06-30T08:35:40.578Z,26.22
2023-06-30T08:37:43.936Z,26.33
2023-06-30T08:39:46.725Z,25.99
2023-06-30T08:41:53.927Z,26.75
2023-06-30T08:43:59.246Z,26.72
2023-06-30T08:46:03.821Z,26.83
2023-06-30T08:48:07.809Z,26.92
2023-06-30T08:50:11.407Z,27.00
2023-06-30T08:52:16.760Z,27.25
2023-06-30T08:54:20.103Z,27.32
2023-06-30T08:56:23.667Z,27.40
2023-06-30T08:58:29.349Z,27.40
2023-06-30T09:00:32.867Z,27.46
2023-06-30T09:02:38.417Z,27.10
2023-06-30T09:04:45.960Z,27.23
2023-06-30T09:06:50.568Z,27.31
2023-06-30T09:09:21.951Z,27.51
2023-06-30T09:11:26.070Z,27.64
2023-06-30T09:13:29.929Z,27.85
2023-06-30T09:15:34.305Z,27.79
2023-06-30T09:17:38.085Z,27.52
2023-06-30T09:19:41.224Z,27.13
2023-06-30T09:21:44.351Z,27.81
2023-06-30T09:23:46.966Z,27.69
2023-06-30T09:25:50.497Z,28.06
2023-06-30T09:27:57.918Z,28.23
2023-06-30T09:30:00.476Z,28.42
2023-06-30T09:32:04.593Z,28.62
2023-06-30T09:34:15.480Z,28.48
2023-06-30T09:36:19.090Z,28.61
2023-06-30T09:38:22.941Z,28.64
2023-06-30T09:40:26.688Z,28.83
2023-06-30T09:42:29.515Z,28.71
2023-06-30T09:44:41.891Z,28.95
2023-06-30T09:46:52.229Z,29.15
2023-06-30T09:48:56.779Z,29.51
2023-06-30T09:51:00.306Z,29.25
2023-06-30T09:53:03.911Z,29.36
2023-06-30T09:55:16.169Z,29.62
2023-06-30T09:57:18.608Z,29.92
2023-06-30T09:59:24.427Z,29.79
2023-06-30T10:01:27.711Z,29.64
2023-06-30T10:03:31.127Z,29.67
2023-06-30T10:05:34.144Z,30.03
2023-06-30T10:07:39.514Z,30.13
2023-06-30T10:09:46.242Z,29.97
2023-06-30T10:11:54.440Z,30.61
2023-06-30T10:14:00.501Z,30.79
2023-06-30T10:16:05.643Z,30.85
2023-06-30T10:18:13.985Z,31.01
2023-06-30T10:20:19.552Z,31.29
2023-06-30T10:22:23.241Z,31.44
2023-06-30T10:24:28.716Z,31.49
2023-06-30T10:26:36.488Z,31.57
2023-06-30T10:28:40.269Z,31.52
2023-06-30T10:30:44.418Z,31.54
2023-06-30T10:32:47.987Z,31.62
2023-06-30T10:34:52.901Z,31.86
2023-06-30T10:36:56.159Z,31.92
2023-06-30T10:39:01.136Z,31.99
2023-06-30T10:41:46.161Z,32.08
2023-06-30T10:44:09.566Z,32.10
2023-06-30T10:46:13.001Z,32.33
2023-06-30T10:48:21.961Z,32.39
2023-06-30T10:50:25.639Z,32.37
2023-06-30T10:52:31.063Z,32.52
2023-06-30T10:54:47.826Z,32.55
2023-06-30T10:57:06.334Z,32.37
2023-06-30T10:59:10.938Z,32.03
2023-06-30T11:01:15.734Z,32.15
2023-06-30T11:03:19.286Z,31.94
2023-06-30T11:05:34.454Z,32.50
2023-06-30T11:07:37.545Z,32.37
2023-06-30T11:09:50.234Z,32.74
2023-06-30T11:11:53.641Z,32.47
2023-06-30T11:14:06.964Z,32.21
2023-06-30T11:16:10.716Z,31.59
2023-06-30T11:18:24.520Z,31.30
2023-06-30T11:20:28.202Z,31.85
2023-06-30T11:22:32.744Z,31.70
2023-06-30T11:24:35.352Z,32.26
2023-06-30T11:26:38.459Z,32.12
2023-06-30T11:28:43.669Z,32.30
2023-06-30T11:30:46.460Z,32.39
2023-06-30T11:32:54.743Z,32.32
2023-06-30T11:34:58.596Z,32.49
2023-06-30T11:37:08.470Z,32.76
2023-06-30T11:39:11.329Z,32.74
2023-06-30T11:41:20.628Z,33.10
2023-06-30T11:43:24.310Z,33.13
2023-06-30T11:45:29.087Z,33.33
2023-06-30T11:47:32.697Z,33.15
2023-06-30T11:49:40.058Z,33.06
2023-06-30T11:51:43.396Z,33.18
2023-06-30T11:53:50.305Z,32.90
2023-06-30T11:55:53.713Z,32.62
2023-06-30T11:57:57.744Z,32.63
2023-06-30T12:00:19.259Z,32.37
2023-06-30T12:02:36.141Z,32.26
2023-06-30T12:04:39.565Z,32.27
2023-06-30T12:06:48.842Z,32.06
2023-06-30T12:08:51.949Z,32.14
2023-06-30T12:10:55.734Z,32.26
2023-06-30T12:12:59.191Z,32.11
2023-06-30T12:15:06.508Z,31.70
2023-06-30T12:17:10.754Z,31.91
2023-06-30T12:19:14.474Z,31.70
2023-06-30T12:21:17.471Z,31.53
2023-06-30T12:23:29.834Z,31.50
2023-06-30T12:25:35.722Z,31.24
2023-06-30T12:27:43.998Z,31.34
2023-06-30T12:29:50.359Z,30.84
2023-06-30T12:31:55.169Z,30.68
2023-06-30T12:33:58.612Z,30.86
2023-06-30T12:36:08.124Z,30.82
2023-06-30T12:38:11.560Z,30.57
2023-06-30T12:40:15.276Z,30.52
2023-06-30T12:42:19.946Z,30.49
2023-06-30T12:44:23.553Z,30.52
2023-06-30T12:46:27.543Z,30.41
2023-06-30T12:48:30.522Z,30.45
2023-06-30T12:50:34.494Z,30.73
2023-06-30T12:52:37.289Z,30.61
2023-06-30T12:54:40.397Z,30.66
2023-06-30T12:56:43.007Z,30.71
2023-06-30T12:58:45.838Z,30.62
2023-06-30T13:00:48.928Z,30.51
2023-06-30T13:02:52.249Z,30.64
2023-06-30T13:04:55.011Z,30.87
2023-06-30T13:06:58.028Z,31.07
2023-06-30T13:09:00.774Z,31.17
2023-06-30T13:11:04.206Z,31.16
2023-06-30T13:13:06.920Z,31.06
2023-06-30T13:15:12.136Z,31.49
2023-06-30T13:17:16.617Z,31.54
2023-06-30T13:19:20.249Z,31.50
2023-06-30T13:21:23.502Z,31.59
2023-06-30T13:23:36.485Z,31.66
2023-06-30T13:25:41.116Z,31.92
2023-06-30T13:27:44.036Z,31.93
2023-06-30T13:29:52.305Z,32.01
2023-06-30T13:31:56.281Z,32.20
2023-06-30T13:34:00.065Z,32.05
2023-06-30T13:36:04.120Z,32.40
2023-06-30T13:38:07.039Z,32.44
2023-06-30T13:40:12.904Z,32.67
2023-06-30T13:42:15.896Z,32.68
2023-06-30T13:44:18.934Z,32.74
2023-06-30T13:46:22.430Z,32.54
2023-06-30T13:48:25.671Z,32.28
2023-06-30T13:50:29.451Z,32.44
2023-06-30T13:52:32.116Z,32.52
2023-06-30T13:54:37.825Z,32.40
2023-06-30T13:56:40.641Z,32.53
2023-06-30T13:58:43.321Z,32.52
2023-06-30T14:00:48.566Z,32.46
2023-06-30T14:02:51.604Z,32.58
2023-06-30T14:04:55.904Z,32.81
2023-06-30T14:07:00.566Z,32.48
2023-06-30T14:09:04.680Z,32.46
2023-06-30T14:11:07.459Z,32.38
2023-06-30T14:13:10.681Z,32.27
2023-06-30T14:15:13.609Z,32.61
2023-06-30T14:17:17.076Z,32.52
2023-06-30T14:19:20.073Z,32.56
2023-06-30T14:21:23.348Z,32.57
2023-06-30T14:23:26.214Z,32.69
2023-06-30T14:25:28.894Z,32.44
2023-06-30T14:27:31.724Z,32.45
2023-06-30T14:29:35.908Z,32.60
2023-06-30T14:31:39.068Z,32.42
2023-06-30T14:33:42.484Z,32.43
2023-06-30T14:35:45.995Z,32.48
2023-06-30T14:37:50.294Z,32.49
2023-06-30T14:39:53.431Z,32.60
2023-06-30T14:42:01.912Z,32.74
2023-06-30T14:44:06.165Z,32.61
2023-06-30T14:46:09.434Z,32.73
2023-06-30T14:48:13.016Z,32.77
2023-06-30T14:50:15.808Z,32.56
2023-06-30T14:52:19.172Z,32.58
2023-06-30T14:54:22.213Z,32.76
2023-06-30T14:56:25.107Z,32.51
2023-06-30T14:58:28.518Z,32.64
2023-06-30T15:00:31.678Z,32.45
2023-06-30T15:02:34.904Z,32.17
2023-06-30T15:04:38.383Z,32.46
2023-06-30T15:06:41.547Z,32.47
2023-06-30T15:08:44.877Z,32.32
2023-06-30T15:10:47.540Z,32.05
2023-06-30T15:12:50.370Z,32.23
2023-06-30T15:14:53.135Z,32.04
2023-06-30T15:16:55.763Z,31.91
2023-06-30T15:18:58.617Z,32.08
2023-06-30T15:21:01.322Z,31.79
2023-06-30T15:23:04.586Z,31.86
2023-06-30T15:25:08.045Z,31.51
2023-06-30T15:27:11.330Z,31.68
2023-06-30T15:29:16.487Z,31.71
2023-06-30T15:31:19.947Z,31.54
2023-06-30T15:33:23.463Z,31.62
2023-06-30T15:35:26.807Z,31.48
2023-06-30T15:37:29.792Z,31.43
2023-06-30T15:39:32.534Z,31.60
2023-06-30T15:41:37.304Z,31.18
2023-06-30T15:43:39.797Z,31.15
2023-06-30T15:45:42.423Z,31.07
2023-06-30T15:47:45.419Z,31.10
2023-06-30T15:49:48.307Z,30.98
2023-06-30T15:51:50.851Z,30.70
2023-06-30T15:53:54.249Z,30.90
2023-06-30T15:55:58.359Z,30.77
2023-06-30T15:58:02.598Z,30.72
2023-06-30T16:00:07.659Z,30.55
2023-06-30T16:02:17.671Z,30.40
2023-06-30T16:04:21.512Z,30.55
2023-06-30T16:06:24.593Z,30.44
2023-06-30T16:08:27.307Z,30.23
2023-06-30T16:10:29.801Z,29.86
2023-06-30T16:12:33.013Z,30.12
2023-06-30T16:14:35.879Z,29.92
2023-06-30T16:16:39.076Z,29.77
2023-06-30T16:18:42.379Z,29.53
2023-06-30T16:20:45.429Z,29.54
2023-06-30T16:22:48.204Z,29.56
2023-06-30T16:24:51.241Z,29.55
2023-06-30T16:26:54.249Z,29.08
2023-06-30T16:28:57.768Z,29.14
2023-06-30T16:31:00.181Z,29.29
2023-06-30T16:33:02.933Z,28.95
2023-06-30T16:35:06.762Z,29.00
2023-06-30T16:37:09.683Z,28.75
2023-06-30T16:39:12.855Z,28.49
2023-06-30T16:41:15.686Z,27.92
2023-06-30T16:43:19.188Z,28.05
2023-06-30T16:45:24.441Z,27.45
2023-06-30T16:47:27.202Z,27.36
2023-06-30T16:49:33.778Z,26.69
2023-06-30T16:51:37.481Z,26.78
2023-06-30T16:53:40.719Z,26.53
2023-06-30T16:55:43.978Z,26.14
2023-06-30T16:57:48.655Z,26.00
2023-06-30T16:59:51.421Z,25.69
2023-06-30T17:01:56.308Z,25.93
2023-06-30T17:03:59.552Z,25.63
2023-06-30T17:06:03.199Z,25.58
2023-06-30T17:08:06.253Z,25.33
2023-06-30T17:10:09.640Z,25.17
2023-06-30T17:12:13.852Z,25.04
2023-06-30T17:14:16.777Z,25.27
2023-06-30T17:16:22.345Z,24.74
2023-06-30T17:18:27.253Z,24.80
2023-06-30T17:20:30.526Z,24.70
2023-06-30T17:22:33.453Z,24.74
2023-06-30T17:24:36.286Z,24.70
2023-06-30T17:26:39.552Z,24.48
2023-06-30T17:28:43.265Z,24.45
2023-06-30T17:30:46.071Z,24.35
2023-06-30T17:32:49.240Z,24.43
2023-06-30T17:34:52.091Z,24.46
2023-06-30T17:37:08.661Z,24.35
2023-06-30T17:39:12.325Z,23.92
2023-06-30T17:41:15.104Z,23.99
2023-06-30T17:43:18.801Z,23.71
2023-06-30T17:45:21.601Z,23.98
2023-06-30T17:47:24.367Z,23.99
2023-06-30T17:49:31.809Z,23.73
2023-06-30T17:51:34.748Z,23.46
2023-06-30T17:53:38.081Z,23.43
2023-06-30T17:55:43.927Z,23.61
2023-06-30T17:57:47.513Z,23.40
2023-06-30T17:59:50.302Z,23.21
2023-06-30T18:01:53.219Z,23.58
2023-06-30T18:03:56.054Z,23.42
2023-06-30T18:06:00.500Z,23.48
2023-06-30T18:08:04.755Z,23.30
2023-06-30T18:10:09.157Z,23.29
2023-06-30T18:12:12.840Z,23.23
2023-06-30T18:14:15.678Z,23.14
2023-06-30T18:16:18.432Z,22.90
2023-06-30T18:18:21.985Z,22.75
2023-06-30T18:20:25.009Z,22.41
2023-06-30T18:22:28.017Z,22.96
2023-06-30T18:24:31.364Z,22.40
2023-06-30T18:26:34.825Z,22.45
2023-06-30T18:28:38.042Z,22.53
2023-06-30T18:30:41.221Z,22.46
2023-06-30T18:32:44.481Z,22.18
2023-06-30T18:34:48.429Z,22.36
2023-06-30T18:36:52.387Z,22.23
2023-06-30T18:38:55.235Z,22.01
2023-06-30T18:40:57.956Z,22.03
2023-06-30T18:43:00.577Z,22.37
2023-06-30T18:45:05.348Z,22.48
2023-06-30T18:47:09.365Z,22.50
2023-06-30T18:49:12.911Z,22.19
2023-06-30T18:51:16.671Z,21.95
2023-06-30T18:53:19.451Z,21.89
2023-06-30T18:55:22.907Z,21.85
2023-06-30T18:57:26.367Z,21.84
2023-06-30T18:59:29.088Z,21.99
2023-06-30T19:01:32.327Z,21.68
2023-06-30T19:03:35.747Z,21.62
2023-06-30T19:05:38.903Z,21.66
2023-06-30T19:07:42.127Z,21.79
2023-06-30T19:09:44.924Z,21.69
2023-06-30T19:11:48.158Z,21.44
2023-06-30T19:13:51.889Z,21.71
2023-06-30T19:15:55.471Z,21.63
2023-06-30T19:17:58.776Z,21.50
2023-06-30T19:20:01.756Z,21.27
2023-06-30T19:22:04.929Z,21.43
2023-06-30T19:24:08.898Z,21.27
2023-06-30T19:26:12.608Z,21.11
2023-06-30T19:28:16.325Z,21.25
2023-06-30T19:30:20.154Z,21.37
2023-06-30T19:32:23.290Z,21.53
2023-06-30T19:34:26.181Z,21.23
2023-06-30T19:36:33.157Z,20.83
2023-06-30T19:38:36.587Z,21.10
2023-06-30T19:40:39.520Z,20.77
2023-06-30T19:42:42.682Z,20.99
2023-06-30T19:44:47.767Z,21.18
2023-06-30T19:46:51.728Z,20.96
2023-06-30T19:48:55.747Z,20.92
2023-06-30T19:50:58.565Z,20.87
2023-06-30T19:53:04.360Z,20.77
2023-06-30T19:55:08.768Z,20.81
2023-06-30T19:57:11.469Z,20.45
2023-06-30T19:59:14.524Z,20.63
2023-06-30T20:01:19.991Z,20.49
2023-06-30T20:03:23.223Z,20.62
2023-06-30T20:05:26.722Z,20.48
2023-06-30T20:07:29.871Z,20.47
2023-06-30T20:09:34.516Z,20.35
2023-06-30T20:11:37.319Z,20.50
2023-06-30T20:13:41.170Z,20.63
2023-06-30T20:15:44.651Z,20.54
2023-06-30T20:17:48.284Z,20.41
2023-06-30T20:19:51.474Z,20.28
2023-06-30T20:21:54.810Z,20.24
2023-06-30T20:23:57.715Z,20.59
2023-06-30T20:26:02.093Z,19.91
2023-06-30T20:28:05.831Z,20.01
2023-06-30T20:30:09.756Z,20.22
2023-06-30T20:32:12.851Z,20.29
2023-06-30T20:34:15.590Z,20.11
2023-06-30T20:36:18.659Z,20.36
2023-06-30T20:38:22.198Z,19.87
2023-06-30T20:40:25.308Z,20.31
2023-06-30T20:42:28.959Z,19.84
2023-06-30T20:44:31.919Z,20.16
2023-06-30T20:46:35.251Z,20.07
2023-06-30T20:48:38.623Z,20.21
2023-06-30T20:50:41.848Z,20.02
2023-06-30T20:52:44.628Z,19.88
2023-06-30T20:54:47.778Z,20.06
2023-06-30T20:56:52.637Z,19.78
2023-06-30T20:58:56.406Z,19.66
2023-06-30T21:00:59.314Z,19.56
2023-06-30T21:03:02.605Z,19.98
2023-06-30T21:05:06.121Z,20.03
2023-06-30T21:07:09.198Z,19.56
2023-06-30T21:09:12.309Z,19.62
2023-06-30T21:11:15.387Z,20.00
2023-06-30T21:13:18.273Z,19.63
2023-06-30T21:15:21.371Z,19.72
2023-06-30T21:17:24.422Z,20.11
2023-06-30T21:19:27.170Z,19.87
2023-06-30T21:21:31.976Z,20.08
2023-06-30T21:23:34.932Z,19.68
2023-06-30T21:25:37.775Z,19.71
2023-06-30T21:27:40.680Z,20.07
2023-06-30T21:29:43.545Z,19.81
2023-06-30T21:31:46.450Z,19.97
2023-06-30T21:33:49.916Z,20.01
2023-06-30T21:35:53.090Z,19.76
2023-06-30T21:37:56.101Z,19.63
2023-06-30T21:40:02.760Z,19.63
2023-06-30T21:42:05.718Z,19.60
2023-06-30T21:44:08.468Z,19.86
2023-06-30T21:46:15.870Z,19.68
2023-06-30T21:48:18.850Z,19.43
2023-06-30T21:50:21.801Z,19.75
2023-06-30T21:52:25.683Z,19.67
2023-06-30T21:54:46.209Z,19.72
2023-06-30T21:56:51.105Z,19.52
2023-06-30T21:58:54.047Z,19.92
2023-06-30T22:00:57.441Z,19.83
2023-06-30T22:03:00.710Z,19.79
2023-06-30T22:05:04.057Z,19.84
2023-06-30T22:07:06.957Z,19.74
2023-06-30T22:09:16.299Z,19.31
2023-06-30T22:11:19.588Z,19.62
2023-06-30T22:13:23.949Z,19.51
2023-06-30T22:15:27.771Z,19.50
2023-06-30T22:17:30.866Z,19.63
2023-06-30T22:19:35.849Z,19.68
2023-06-30T22:21:41.382Z,19.70
2023-06-30T22:23:45.366Z,19.23
2023-06-30T22:25:48.022Z,19.70
2023-06-30T22:27:54.362Z,19.65
2023-06-30T22:29:57.139Z,19.49
2023-06-30T22:31:59.780Z,19.47
2023-06-30T22:34:02.946Z,19.32
2023-06-30T22:36:06.685Z,19.80
2023-06-30T22:38:09.404Z,19.84
2023-06-30T22:40:12.991Z,19.67
2023-06-30T22:42:16.175Z,19.70
2023-06-30T22:44:19.189Z,19.64
2023-06-30T22:46:21.843Z,19.27
2023-06-30T22:48:24.967Z,19.70
2023-06-30T22:50:27.682Z,19.67
2023-06-30T22:52:30.951Z,19.55
2023-06-30T22:54:35.978Z,19.32
2023-06-30T22:56:39.470Z,19.74
2023-06-30T22:58:42.603Z,19.35
2023-06-30T23:00:45.341Z,19.38
2023-06-30T23:02:48.401Z,19.35
2023-06-30T23:04:51.068Z,19.27
2023-06-30T23:06:53.849Z,19.68
2023-06-30T23:08:56.681Z,19.55
2023-06-30T23:10:59.892Z,19.50
2023-06-30T23:13:03.750Z,19.55
2023-06-30T23:15:07.042Z,19.47
2023-06-30T23:17:17.010Z,19.57
2023-06-30T23:19:19.991Z,19.55
2023-06-30T23:21:22.631Z,19.57
2023-06-30T23:23:29.410Z,19.48
2023-06-30T23:25:34.842Z,19.47
2023-06-30T23:27:40.824Z,19.49
2023-06-30T23:29:46.369Z,19.36
2023-06-30T23:31:49.649Z,19.37
2023-06-30T23:33:53.805Z,19.11
2023-06-30T23:35:57.241Z,19.54
2023-06-30T23:38:00.008Z,19.36
2023-06-30T23:40:03.173Z,19.31
2023-06-30T23:42:06.943Z,19.62
2023-06-30T23:44:09.973Z,19.26
2023-06-30T23:46:23.031Z,19.38
2023-06-30T23:48:25.785Z,19.19
2023-06-30T23:50:28.538Z,19.31
2023-06-30T23:52:32.136Z,18.92
2023-06-30T23:54:35.426Z,18.99
2023-06-30T23:56:37.861Z,19.16
2023-06-30T23:58:40.420Z,19.05
